sensor_id;sensor_type;location;lat;lon;timestamp;P1;durP1;ratioP1;P2;durP2;ratioP2
8893;SDS011;4483;48.622;9.230;2022-08-19T00:01:43;10.25;;;9.18;;
8893;SDS011;4483;48.622;9.230;2022-08-19T00:04:12;10.02;;;9.13;;
8893;SDS011;4483;48.622;9.230;2022-08-19T00:06:41;9.63;;;8.82;;
8893;SDS011;4483;48.622;9.230;2022-08-19T00:09:10;10.02;;;9.20;;
8893;SDS011;4483;48.622;9.230;2022-08-19T00:11:40;10.20;;;9.10;;
8893;SDS011;4483;48.622;9.230;2022-08-19T00:14:09;9.75;;;8.95;;
8893;SDS011;4483;48.622;9.230;2022-08-19T00:16:37;9.85;;;8.93;;
8893;SDS011;4483;48.622;9.230;2022-08-19T00:19:05;11.98;;;9.38;;
8893;SDS011;4483;48.622;9.230;2022-08-19T00:21:32;10.48;;;9.43;;
8893;SDS011;4483;48.622;9.230;2022-08-19T00:24:03;9.52;;;8.73;;
8893;SDS011;4483;48.622;9.230;2022-08-19T00:26:30;10.10;;;9.25;;
8893;SDS011;4483;48.622;9.230;2022-08-19T00:28:58;10.43;;;9.52;;
8893;SDS011;4483;48.622;9.230;2022-08-19T00:31:27;10.55;;;8.98;;
8893;SDS011;4483;48.622;9.230;2022-08-19T00:33:54;9.90;;;9.02;;
8893;SDS011;4483;48.622;9.230;2022-08-19T00:36:21;9.55;;;8.85;;
8893;SDS011;4483;48.622;9.230;2022-08-19T00:38:47;10.18;;;9.27;;
8893;SDS011;4483;48.622;9.230;2022-08-19T00:41:17;10.20;;;9.30;;
8893;SDS011;4483;48.622;9.230;2022-08-19T00:43:56;10.07;;;9.10;;
8893;SDS011;4483;48.622;9.230;2022-08-19T00:46:23;10.95;;;9.90;;
8893;SDS011;4483;48.622;9.230;2022-08-19T00:48:51;10.80;;;9.85;;
8893;SDS011;4483;48.622;9.230;2022-08-19T00:51:18;10.45;;;9.55;;
8893;SDS011;4483;48.622;9.230;2022-08-19T00:53:47;10.85;;;9.95;;
8893;SDS011;4483;48.622;9.230;2022-08-19T00:56:13;11.07;;;10.10;;
8893;SDS011;4483;48.622;9.230;2022-08-19T00:58:41;11.10;;;10.13;;
8893;SDS011;4483;48.622;9.230;2022-08-19T01:01:08;11.52;;;10.38;;
8893;SDS011;4483;48.622;9.230;2022-08-19T01:03:35;10.77;;;9.85;;
8893;SDS011;4483;48.622;9.230;2022-08-19T01:06:03;11.02;;;9.95;;
8893;SDS011;4483;48.622;9.230;2022-08-19T01:08:31;11.75;;;10.15;;
8893;SDS011;4483;48.622;9.230;2022-08-19T01:10:58;15.93;;;10.30;;
8893;SDS011;4483;48.622;9.230;2022-08-19T01:13:27;12.20;;;11.00;;
8893;SDS011;4483;48.622;9.230;2022-08-19T01:15:57;12.50;;;11.32;;
8893;SDS011;4483;48.622;9.230;2022-08-19T01:18:27;11.80;;;10.75;;
8893;SDS011;4483;48.622;9.230;2022-08-19T01:20:58;11.40;;;10.30;;
8893;SDS011;4483;48.622;9.230;2022-08-19T01:23:32;11.52;;;10.52;;
8893;SDS011;4483;48.622;9.230;2022-08-19T01:26:09;11.77;;;10.68;;
8893;SDS011;4483;48.622;9.230;2022-08-19T01:28:38;11.25;;;10.25;;
8893;SDS011;4483;48.622;9.230;2022-08-19T01:31:06;11.90;;;10.70;;
8893;SDS011;4483;48.622;9.230;2022-08-19T01:33:36;12.10;;;11.00;;
8893;SDS011;4483;48.622;9.230;2022-08-19T01:36:04;12.70;;;11.50;;
8893;SDS011;4483;48.622;9.230;2022-08-19T01:38:36;12.45;;;11.18;;
8893;SDS011;4483;48.622;9.230;2022-08-19T01:41:04;11.70;;;10.60;;
8893;SDS011;4483;48.622;9.230;2022-08-19T01:43:32;11.75;;;10.75;;
8893;SDS011;4483;48.622;9.230;2022-08-19T01:45:59;12.60;;;11.48;;
8893;SDS011;4483;48.622;9.230;2022-08-19T01:48:26;12.75;;;11.48;;
8893;SDS011;4483;48.622;9.230;2022-08-19T01:50:54;13.02;;;11.73;;
8893;SDS011;4483;48.622;9.230;2022-08-19T01:53:21;13.15;;;11.85;;
8893;SDS011;4483;48.622;9.230;2022-08-19T01:55:49;12.43;;;11.23;;
8893;SDS011;4483;48.622;9.230;2022-08-19T01:58:17;12.80;;;11.50;;
8893;SDS011;4483;48.622;9.230;2022-08-19T02:00:46;13.18;;;11.88;;
8893;SDS011;4483;48.622;9.230;2022-08-19T02:03:14;12.52;;;11.32;;
8893;SDS011;4483;48.622;9.230;2022-08-19T02:05:41;13.05;;;11.85;;
8893;SDS011;4483;48.622;9.230;2022-08-19T02:08:09;12.95;;;11.65;;
8893;SDS011;4483;48.622;9.230;2022-08-19T02:10:39;12.45;;;11.18;;
8893;SDS011;4483;48.622;9.230;2022-08-19T02:13:08;12.65;;;11.15;;
8893;SDS011;4483;48.622;9.230;2022-08-19T02:15:36;14.68;;;11.75;;
8893;SDS011;4483;48.622;9.230;2022-08-19T02:18:03;12.63;;;11.43;;
8893;SDS011;4483;48.622;9.230;2022-08-19T02:20:30;12.80;;;11.60;;
8893;SDS011;4483;48.622;9.230;2022-08-19T02:22:57;12.68;;;11.38;;
8893;SDS011;4483;48.622;9.230;2022-08-19T02:25:23;12.35;;;11.15;;
8893;SDS011;4483;48.622;9.230;2022-08-19T02:27:50;13.15;;;11.77;;
8893;SDS011;4483;48.622;9.230;2022-08-19T02:30:18;13.90;;;11.82;;
8893;SDS011;4483;48.622;9.230;2022-08-19T02:32:46;13.20;;;11.52;;
8893;SDS011;4483;48.622;9.230;2022-08-19T02:35:13;12.38;;;11.05;;
8893;SDS011;4483;48.622;9.230;2022-08-19T02:37:40;13.18;;;11.88;;
8893;SDS011;4483;48.622;9.230;2022-08-19T02:40:25;14.15;;;11.77;;
8893;SDS011;4483;48.622;9.230;2022-08-19T02:42:52;13.18;;;11.88;;
8893;SDS011;4483;48.622;9.230;2022-08-19T02:45:20;15.10;;;12.07;;
8893;SDS011;4483;48.622;9.230;2022-08-19T02:47:47;13.57;;;11.70;;
8893;SDS011;4483;48.622;9.230;2022-08-19T02:50:14;13.00;;;11.70;;
8893;SDS011;4483;48.622;9.230;2022-08-19T02:52:41;13.50;;;12.05;;
8893;SDS011;4483;48.622;9.230;2022-08-19T02:55:08;17.00;;;11.60;;
8893;SDS011;4483;48.622;9.230;2022-08-19T02:57:35;14.45;;;12.38;;
8893;SDS011;4483;48.622;9.230;2022-08-19T03:00:04;14.98;;;12.35;;
8893;SDS011;4483;48.622;9.230;2022-08-19T03:02:34;15.80;;;12.55;;
8893;SDS011;4483;48.622;9.230;2022-08-19T03:05:02;13.80;;;12.38;;
8893;SDS011;4483;48.622;9.230;2022-08-19T03:07:29;13.75;;;12.10;;
8893;SDS011;4483;48.622;9.230;2022-08-19T03:09:56;13.15;;;11.85;;
8893;SDS011;4483;48.622;9.230;2022-08-19T03:12:23;14.10;;;12.60;;
8893;SDS011;4483;48.622;9.230;2022-08-19T03:14:50;15.35;;;13.80;;
8893;SDS011;4483;48.622;9.230;2022-08-19T03:17:17;13.88;;;12.48;;
8893;SDS011;4483;48.622;9.230;2022-08-19T03:19:45;14.65;;;12.57;;
8893;SDS011;4483;48.622;9.230;2022-08-19T03:22:12;14.18;;;12.70;;
8893;SDS011;4483;48.622;9.230;2022-08-19T03:24:39;16.00;;;12.60;;
8893;SDS011;4483;48.622;9.230;2022-08-19T03:27:06;13.32;;;11.95;;
8893;SDS011;4483;48.622;9.230;2022-08-19T03:29:32;14.68;;;12.77;;
8893;SDS011;4483;48.622;9.230;2022-08-19T03:32:03;15.93;;;13.55;;
8893;SDS011;4483;48.622;9.230;2022-08-19T03:34:32;14.15;;;12.65;;
8893;SDS011;4483;48.622;9.230;2022-08-19T03:37:04;15.43;;;13.13;;
8893;SDS011;4483;48.622;9.230;2022-08-19T03:39:32;14.02;;;12.73;;
8893;SDS011;4483;48.622;9.230;2022-08-19T03:41:59;15.77;;;13.07;;
8893;SDS011;4483;48.622;9.230;2022-08-19T03:44:27;15.27;;;13.02;;
8893;SDS011;4483;48.622;9.230;2022-08-19T03:46:55;14.38;;;12.88;;
8893;SDS011;4483;48.622;9.230;2022-08-19T03:49:26;13.90;;;12.40;;
8893;SDS011;4483;48.622;9.230;2022-08-19T03:51:54;13.40;;;11.98;;
8893;SDS011;4483;48.622;9.230;2022-08-19T03:54:23;14.50;;;12.70;;
8893;SDS011;4483;48.622;9.230;2022-08-19T03:56:52;14.00;;;12.48;;
8893;SDS011;4483;48.622;9.230;2022-08-19T03:59:20;15.23;;;13.45;;
8893;SDS011;4483;48.622;9.230;2022-08-19T04:01:50;14.60;;;13.02;;
8893;SDS011;4483;48.622;9.230;2022-08-19T04:04:17;14.90;;;13.20;;
8893;SDS011;4483;48.622;9.230;2022-08-19T04:06:44;15.02;;;13.15;;
8893;SDS011;4483;48.622;9.230;2022-08-19T04:09:12;17.50;;;13.10;;
8893;SDS011;4483;48.622;9.230;2022-08-19T04:11:41;14.45;;;12.95;;
8893;SDS011;4483;48.622;9.230;2022-08-19T04:14:10;14.55;;;13.05;;
8893;SDS011;4483;48.622;9.230;2022-08-19T04:16:39;18.60;;;13.85;;
8893;SDS011;4483;48.622;9.230;2022-08-19T04:19:06;15.75;;;14.15;;
8893;SDS011;4483;48.622;9.230;2022-08-19T04:21:33;15.45;;;13.23;;
8893;SDS011;4483;48.622;9.230;2022-08-19T04:24:00;15.55;;;13.95;;
8893;SDS011;4483;48.622;9.230;2022-08-19T04:26:28;14.75;;;12.65;;
8893;SDS011;4483;48.622;9.230;2022-08-19T04:28:58;14.85;;;13.32;;
8893;SDS011;4483;48.622;9.230;2022-08-19T04:31:27;15.30;;;12.73;;
8893;SDS011;4483;48.622;9.230;2022-08-19T04:33:56;14.65;;;12.65;;
8893;SDS011;4483;48.622;9.230;2022-08-19T04:36:26;15.77;;;12.52;;
8893;SDS011;4483;48.622;9.230;2022-08-19T04:38:55;15.80;;;14.05;;
8893;SDS011;4483;48.622;9.230;2022-08-19T04:41:23;14.35;;;12.93;;
8893;SDS011;4483;48.622;9.230;2022-08-19T04:44:09;15.57;;;12.88;;
8893;SDS011;4483;48.622;9.230;2022-08-19T04:46:36;13.88;;;12.50;;
8893;SDS011;4483;48.622;9.230;2022-08-19T04:49:03;14.73;;;13.30;;
8893;SDS011;4483;48.622;9.230;2022-08-19T04:51:33;14.15;;;12.68;;
8893;SDS011;4483;48.622;9.230;2022-08-19T04:54:00;14.38;;;12.88;;
8893;SDS011;4483;48.622;9.230;2022-08-19T04:56:28;15.43;;;13.77;;
8893;SDS011;4483;48.622;9.230;2022-08-19T04:58:54;16.02;;;14.05;;
8893;SDS011;4483;48.622;9.230;2022-08-19T05:01:25;19.27;;;14.20;;
8893;SDS011;4483;48.622;9.230;2022-08-19T05:03:55;14.80;;;13.05;;
8893;SDS011;4483;48.622;9.230;2022-08-19T05:06:22;14.95;;;13.35;;
8893;SDS011;4483;48.622;9.230;2022-08-19T05:08:50;14.48;;;13.00;;
8893;SDS011;4483;48.622;9.230;2022-08-19T05:11:18;14.60;;;13.05;;
8893;SDS011;4483;48.622;9.230;2022-08-19T05:13:47;15.15;;;13.55;;
8893;SDS011;4483;48.622;9.230;2022-08-19T05:16:15;16.33;;;14.27;;
8893;SDS011;4483;48.622;9.230;2022-08-19T05:18:45;16.08;;;13.35;;
8893;SDS011;4483;48.622;9.230;2022-08-19T05:21:29;15.38;;;13.77;;
8893;SDS011;4483;48.622;9.230;2022-08-19T05:24:14;18.73;;;14.20;;
8893;SDS011;4483;48.622;9.230;2022-08-19T05:26:43;15.20;;;13.65;;
8893;SDS011;4483;48.622;9.230;2022-08-19T05:29:11;15.20;;;13.60;;
8893;SDS011;4483;48.622;9.230;2022-08-19T05:31:39;15.45;;;13.85;;
8893;SDS011;4483;48.622;9.230;2022-08-19T05:34:08;20.98;;;13.88;;
8893;SDS011;4483;48.622;9.230;2022-08-19T05:36:36;16.35;;;13.93;;
8893;SDS011;4483;48.622;9.230;2022-08-19T05:39:05;15.82;;;13.80;;
8893;SDS011;4483;48.622;9.230;2022-08-19T05:41:32;15.48;;;13.90;;
8893;SDS011;4483;48.622;9.230;2022-08-19T05:44:00;15.10;;;13.50;;
8893;SDS011;4483;48.622;9.230;2022-08-19T05:46:30;16.10;;;14.30;;
8893;SDS011;4483;48.622;9.230;2022-08-19T05:48:58;18.75;;;13.77;;
8893;SDS011;4483;48.622;9.230;2022-08-19T05:51:26;15.93;;;13.77;;
8893;SDS011;4483;48.622;9.230;2022-08-19T05:53:53;14.77;;;13.27;;
8893;SDS011;4483;48.622;9.230;2022-08-19T05:56:19;14.98;;;13.40;;
8893;SDS011;4483;48.622;9.230;2022-08-19T05:58:46;17.10;;;13.82;;
8893;SDS011;4483;48.622;9.230;2022-08-19T06:01:14;15.93;;;13.50;;
8893;SDS011;4483;48.622;9.230;2022-08-19T06:03:42;15.07;;;13.48;;
8893;SDS011;4483;48.622;9.230;2022-08-19T06:06:09;16.45;;;14.30;;
8893;SDS011;4483;48.622;9.230;2022-08-19T06:08:40;18.05;;;13.65;;
8893;SDS011;4483;48.622;9.230;2022-08-19T06:11:14;15.77;;;14.10;;
8893;SDS011;4483;48.622;9.230;2022-08-19T06:13:45;18.23;;;15.90;;
8893;SDS011;4483;48.622;9.230;2022-08-19T06:16:15;18.92;;;15.20;;
8893;SDS011;4483;48.622;9.230;2022-08-19T06:18:47;17.40;;;15.25;;
8893;SDS011;4483;48.622;9.230;2022-08-19T06:21:16;20.17;;;15.85;;
8893;SDS011;4483;48.622;9.230;2022-08-19T06:23:45;17.85;;;15.90;;
8893;SDS011;4483;48.622;9.230;2022-08-19T06:26:12;17.85;;;15.95;;
8893;SDS011;4483;48.622;9.230;2022-08-19T06:28:39;20.33;;;15.93;;
8893;SDS011;4483;48.622;9.230;2022-08-19T06:31:08;16.85;;;15.15;;
8893;SDS011;4483;48.622;9.230;2022-08-19T06:33:35;20.65;;;15.77;;
8893;SDS011;4483;48.622;9.230;2022-08-19T06:36:02;19.38;;;15.80;;
8893;SDS011;4483;48.622;9.230;2022-08-19T06:38:29;20.30;;;16.17;;
8893;SDS011;4483;48.622;9.230;2022-08-19T06:41:01;16.58;;;14.80;;
8893;SDS011;4483;48.622;9.230;2022-08-19T06:43:29;18.50;;;15.98;;
8893;SDS011;4483;48.622;9.230;2022-08-19T06:45:56;17.88;;;15.98;;
8893;SDS011;4483;48.622;9.230;2022-08-19T06:48:24;18.85;;;16.45;;
8893;SDS011;4483;48.622;9.230;2022-08-19T06:50:50;17.65;;;15.75;;
8893;SDS011;4483;48.622;9.230;2022-08-19T06:53:17;17.55;;;15.73;;
8893;SDS011;4483;48.622;9.230;2022-08-19T06:55:44;17.85;;;15.88;;
8893;SDS011;4483;48.622;9.230;2022-08-19T06:58:12;18.83;;;16.27;;
8893;SDS011;4483;48.622;9.230;2022-08-19T07:00:39;18.08;;;16.15;;
8893;SDS011;4483;48.622;9.230;2022-08-19T07:03:06;17.85;;;15.85;;
8893;SDS011;4483;48.622;9.230;2022-08-19T07:05:32;18.20;;;15.52;;
8893;SDS011;4483;48.622;9.230;2022-08-19T07:07:59;19.45;;;17.08;;
8893;SDS011;4483;48.622;9.230;2022-08-19T07:10:26;19.40;;;16.98;;
8893;SDS011;4483;48.622;9.230;2022-08-19T07:12:52;17.92;;;16.13;;
8893;SDS011;4483;48.622;9.230;2022-08-19T07:15:20;20.80;;;16.55;;
8893;SDS011;4483;48.622;9.230;2022-08-19T07:17:48;21.27;;;16.98;;
8893;SDS011;4483;48.622;9.230;2022-08-19T07:20:15;18.52;;;16.60;;
8893;SDS011;4483;48.622;9.230;2022-08-19T07:22:42;20.63;;;17.58;;
8893;SDS011;4483;48.622;9.230;2022-08-19T07:25:10;24.45;;;17.73;;
8893;SDS011;4483;48.622;9.230;2022-08-19T07:27:38;18.35;;;16.45;;
8893;SDS011;4483;48.622;9.230;2022-08-19T07:30:05;19.95;;;17.80;;
8893;SDS011;4483;48.622;9.230;2022-08-19T07:32:35;19.15;;;15.85;;
8893;SDS011;4483;48.622;9.230;2022-08-19T07:35:02;22.05;;;17.98;;
8893;SDS011;4483;48.622;9.230;2022-08-19T07:37:31;20.95;;;16.77;;
8893;SDS011;4483;48.622;9.230;2022-08-19T07:39:57;18.70;;;16.80;;
8893;SDS011;4483;48.622;9.230;2022-08-19T07:42:24;22.75;;;17.92;;
8893;SDS011;4483;48.622;9.230;2022-08-19T07:44:51;22.48;;;18.88;;
8893;SDS011;4483;48.622;9.230;2022-08-19T07:47:18;19.88;;;17.33;;
8893;SDS011;4483;48.622;9.230;2022-08-19T07:49:46;21.13;;;17.88;;
8893;SDS011;4483;48.622;9.230;2022-08-19T07:52:13;22.98;;;18.15;;
8893;SDS011;4483;48.622;9.230;2022-08-19T07:54:41;20.92;;;17.45;;
8893;SDS011;4483;48.622;9.230;2022-08-19T07:57:08;22.80;;;18.08;;
8893;SDS011;4483;48.622;9.230;2022-08-19T07:59:35;20.73;;;18.55;;
8893;SDS011;4483;48.622;9.230;2022-08-19T08:02:02;21.85;;;18.60;;
8893;SDS011;4483;48.622;9.230;2022-08-19T08:04:30;22.13;;;17.73;;
8893;SDS011;4483;48.622;9.230;2022-08-19T08:07:15;20.52;;;18.23;;
8893;SDS011;4483;48.622;9.230;2022-08-19T08:10:00;21.00;;;17.15;;
8893;SDS011;4483;48.622;9.230;2022-08-19T08:12:27;22.23;;;18.63;;
8893;SDS011;4483;48.622;9.230;2022-08-19T08:14:57;21.48;;;18.45;;
8893;SDS011;4483;48.622;9.230;2022-08-19T08:17:27;23.48;;;18.77;;
8893;SDS011;4483;48.622;9.230;2022-08-19T08:19:55;22.88;;;18.98;;
8893;SDS011;4483;48.622;9.230;2022-08-19T08:22:23;20.67;;;18.30;;
8893;SDS011;4483;48.622;9.230;2022-08-19T08:25:08;21.98;;;18.58;;
8893;SDS011;4483;48.622;9.230;2022-08-19T08:27:37;22.90;;;18.27;;
8893;SDS011;4483;48.622;9.230;2022-08-19T08:30:06;21.77;;;19.02;;
8893;SDS011;4483;48.622;9.230;2022-08-19T08:32:34;20.15;;;17.70;;
8893;SDS011;4483;48.622;9.230;2022-08-19T08:35:02;22.17;;;19.52;;
8893;SDS011;4483;48.622;9.230;2022-08-19T08:37:30;22.33;;;18.98;;
8893;SDS011;4483;48.622;9.230;2022-08-19T08:39:57;21.98;;;18.52;;
8893;SDS011;4483;48.622;9.230;2022-08-19T08:42:26;24.50;;;18.55;;
8893;SDS011;4483;48.622;9.230;2022-08-19T08:44:58;22.55;;;20.23;;
8893;SDS011;4483;48.622;9.230;2022-08-19T08:47:27;24.92;;;19.35;;
8893;SDS011;4483;48.622;9.230;2022-08-19T08:49:58;22.33;;;19.52;;
8893;SDS011;4483;48.622;9.230;2022-08-19T08:52:29;20.60;;;18.42;;
8893;SDS011;4483;48.622;9.230;2022-08-19T08:55:03;25.73;;;19.55;;
8893;SDS011;4483;48.622;9.230;2022-08-19T08:57:35;23.13;;;19.30;;
8893;SDS011;4483;48.622;9.230;2022-08-19T09:00:07;21.10;;;18.58;;
8893;SDS011;4483;48.622;9.230;2022-08-19T09:02:36;21.50;;;19.17;;
8893;SDS011;4483;48.622;9.230;2022-08-19T09:05:03;20.98;;;18.08;;
8893;SDS011;4483;48.622;9.230;2022-08-19T09:07:35;22.58;;;18.60;;
8893;SDS011;4483;48.622;9.230;2022-08-19T09:10:11;21.67;;;18.92;;
8893;SDS011;4483;48.622;9.230;2022-08-19T09:12:46;23.00;;;19.90;;
8893;SDS011;4483;48.622;9.230;2022-08-19T09:15:22;19.95;;;17.73;;
8893;SDS011;4483;48.622;9.230;2022-08-19T09:17:58;22.23;;;18.30;;
8893;SDS011;4483;48.622;9.230;2022-08-19T09:20:26;24.48;;;18.90;;
8893;SDS011;4483;48.622;9.230;2022-08-19T09:22:54;21.17;;;18.95;;
8893;SDS011;4483;48.622;9.230;2022-08-19T09:25:21;20.95;;;18.75;;
8893;SDS011;4483;48.622;9.230;2022-08-19T09:27:49;24.80;;;18.90;;
8893;SDS011;4483;48.622;9.230;2022-08-19T09:30:19;22.67;;;19.42;;
8893;SDS011;4483;48.622;9.230;2022-08-19T09:32:49;22.42;;;18.20;;
8893;SDS011;4483;48.622;9.230;2022-08-19T09:35:18;20.67;;;18.48;;
8893;SDS011;4483;48.622;9.230;2022-08-19T09:37:47;21.15;;;18.83;;
8893;SDS011;4483;48.622;9.230;2022-08-19T09:40:15;25.15;;;18.67;;
8893;SDS011;4483;48.622;9.230;2022-08-19T09:42:43;21.92;;;17.90;;
8893;SDS011;4483;48.622;9.230;2022-08-19T09:45:11;18.77;;;16.77;;
8893;SDS011;4483;48.622;9.230;2022-08-19T09:47:38;20.98;;;18.27;;
8893;SDS011;4483;48.622;9.230;2022-08-19T09:50:06;25.92;;;19.02;;
8893;SDS011;4483;48.622;9.230;2022-08-19T09:52:34;21.33;;;18.15;;
8893;SDS011;4483;48.622;9.230;2022-08-19T09:55:01;19.63;;;17.58;;
8893;SDS011;4483;48.622;9.230;2022-08-19T09:57:30;19.08;;;16.70;;
8893;SDS011;4483;48.622;9.230;2022-08-19T09:59:56;21.23;;;18.02;;
8893;SDS011;4483;48.622;9.230;2022-08-19T10:02:23;19.48;;;17.58;;
8893;SDS011;4483;48.622;9.230;2022-08-19T10:04:50;19.55;;;17.55;;
8893;SDS011;4483;48.622;9.230;2022-08-19T10:07:34;21.70;;;18.15;;
8893;SDS011;4483;48.622;9.230;2022-08-19T10:10:02;20.60;;;18.40;;
8893;SDS011;4483;48.622;9.230;2022-08-19T10:12:32;21.20;;;18.75;;
8893;SDS011;4483;48.622;9.230;2022-08-19T10:14:59;23.77;;;19.30;;
8893;SDS011;4483;48.622;9.230;2022-08-19T10:17:26;19.42;;;17.60;;
8893;SDS011;4483;48.622;9.230;2022-08-19T10:19:53;22.25;;;18.45;;
8893;SDS011;4483;48.622;9.230;2022-08-19T10:22:20;21.50;;;17.75;;
8893;SDS011;4483;48.622;9.230;2022-08-19T10:24:47;20.73;;;18.52;;
8893;SDS011;4483;48.622;9.230;2022-08-19T10:27:14;20.17;;;18.02;;
8893;SDS011;4483;48.622;9.230;2022-08-19T10:29:42;20.95;;;18.35;;
8893;SDS011;4483;48.622;9.230;2022-08-19T10:32:09;19.95;;;17.95;;
8893;SDS011;4483;48.622;9.230;2022-08-19T10:34:37;24.40;;;18.42;;
8893;SDS011;4483;48.622;9.230;2022-08-19T10:37:04;21.42;;;18.27;;
8893;SDS011;4483;48.622;9.230;2022-08-19T10:39:32;20.60;;;17.83;;
8893;SDS011;4483;48.622;9.230;2022-08-19T10:42:03;19.95;;;17.95;;
8893;SDS011;4483;48.622;9.230;2022-08-19T10:44:31;23.95;;;20.33;;
8893;SDS011;4483;48.622;9.230;2022-08-19T10:47:02;20.92;;;18.83;;
8893;SDS011;4483;48.622;9.230;2022-08-19T10:49:29;21.10;;;18.83;;
8893;SDS011;4483;48.622;9.230;2022-08-19T10:51:57;20.98;;;18.73;;
8893;SDS011;4483;48.622;9.230;2022-08-19T10:54:41;23.83;;;20.08;;
8893;SDS011;4483;48.622;9.230;2022-08-19T10:57:26;27.48;;;21.23;;
8893;SDS011;4483;48.622;9.230;2022-08-19T10:59:57;23.13;;;20.25;;
8893;SDS011;4483;48.622;9.230;2022-08-19T11:02:25;22.40;;;20.00;;
8893;SDS011;4483;48.622;9.230;2022-08-19T11:04:51;25.50;;;21.08;;
8893;SDS011;4483;48.622;9.230;2022-08-19T11:07:18;27.67;;;22.15;;
8893;SDS011;4483;48.622;9.230;2022-08-19T11:09:46;24.25;;;21.50;;
8893;SDS011;4483;48.622;9.230;2022-08-19T11:12:12;25.40;;;20.63;;
8893;SDS011;4483;48.622;9.230;2022-08-19T11:14:40;25.95;;;21.42;;
8893;SDS011;4483;48.622;9.230;2022-08-19T11:17:06;26.30;;;21.08;;
8893;SDS011;4483;48.622;9.230;2022-08-19T11:19:34;23.55;;;21.00;;
8893;SDS011;4483;48.622;9.230;2022-08-19T11:22:01;25.25;;;21.58;;
8893;SDS011;4483;48.622;9.230;2022-08-19T11:24:28;24.17;;;20.92;;
8893;SDS011;4483;48.622;9.230;2022-08-19T11:27:00;23.83;;;20.50;;
8893;SDS011;4483;48.622;9.230;2022-08-19T11:29:30;23.77;;;20.10;;
8893;SDS011;4483;48.622;9.230;2022-08-19T11:31:59;26.88;;;21.90;;
8893;SDS011;4483;48.622;9.230;2022-08-19T11:34:28;25.48;;;20.65;;
8893;SDS011;4483;48.622;9.230;2022-08-19T11:36:57;26.17;;;21.40;;
8893;SDS011;4483;48.622;9.230;2022-08-19T11:39:26;24.20;;;20.05;;
8893;SDS011;4483;48.622;9.230;2022-08-19T11:41:54;24.88;;;21.23;;
8893;SDS011;4483;48.622;9.230;2022-08-19T11:44:21;25.98;;;22.65;;
8893;SDS011;4483;48.622;9.230;2022-08-19T11:46:47;24.17;;;21.58;;
8893;SDS011;4483;48.622;9.230;2022-08-19T11:49:15;24.92;;;22.17;;
8893;SDS011;4483;48.622;9.230;2022-08-19T11:51:44;25.42;;;21.50;;
8893;SDS011;4483;48.622;9.230;2022-08-19T11:54:12;27.65;;;21.98;;
8893;SDS011;4483;48.622;9.230;2022-08-19T11:56:41;25.92;;;22.95;;
8893;SDS011;4483;48.622;9.230;2022-08-19T11:59:08;30.75;;;22.98;;
8893;SDS011;4483;48.622;9.230;2022-08-19T12:01:35;26.70;;;22.52;;
8893;SDS011;4483;48.622;9.230;2022-08-19T12:04:03;27.00;;;22.75;;
8893;SDS011;4483;48.622;9.230;2022-08-19T12:06:30;26.60;;;23.05;;
8893;SDS011;4483;48.622;9.230;2022-08-19T12:08:59;25.65;;;22.83;;
8893;SDS011;4483;48.622;9.230;2022-08-19T12:11:32;25.77;;;22.85;;
8893;SDS011;4483;48.622;9.230;2022-08-19T12:13:59;26.67;;;21.63;;
8893;SDS011;4483;48.622;9.230;2022-08-19T12:16:27;27.33;;;22.83;;
8893;SDS011;4483;48.622;9.230;2022-08-19T12:18:55;25.40;;;21.88;;
8893;SDS011;4483;48.622;9.230;2022-08-19T12:21:24;26.50;;;23.25;;
8893;SDS011;4483;48.622;9.230;2022-08-19T12:23:54;26.20;;;22.23;;
8893;SDS011;4483;48.622;9.230;2022-08-19T12:26:22;29.42;;;23.58;;
8893;SDS011;4483;48.622;9.230;2022-08-19T12:28:51;29.35;;;23.17;;
8893;SDS011;4483;48.622;9.230;2022-08-19T12:31:18;25.77;;;22.33;;
8893;SDS011;4483;48.622;9.230;2022-08-19T12:33:45;27.08;;;21.67;;
8893;SDS011;4483;48.622;9.230;2022-08-19T12:36:14;24.38;;;21.77;;
8893;SDS011;4483;48.622;9.230;2022-08-19T12:38:42;28.52;;;22.65;;
8893;SDS011;4483;48.622;9.230;2022-08-19T12:41:10;27.63;;;22.77;;
8893;SDS011;4483;48.622;9.230;2022-08-19T12:43:38;26.10;;;22.75;;
8893;SDS011;4483;48.622;9.230;2022-08-19T12:46:06;25.35;;;22.60;;
8893;SDS011;4483;48.622;9.230;2022-08-19T12:48:33;26.00;;;21.77;;
8893;SDS011;4483;48.622;9.230;2022-08-19T12:51:01;22.38;;;20.08;;
8893;SDS011;4483;48.622;9.230;2022-08-19T12:53:32;26.70;;;22.77;;
8893;SDS011;4483;48.622;9.230;2022-08-19T12:55:59;23.90;;;21.23;;
8893;SDS011;4483;48.622;9.230;2022-08-19T12:58:26;25.45;;;21.92;;
8893;SDS011;4483;48.622;9.230;2022-08-19T13:00:53;27.65;;;22.23;;
8893;SDS011;4483;48.622;9.230;2022-08-19T13:03:21;25.73;;;21.98;;
8893;SDS011;4483;48.622;9.230;2022-08-19T13:05:54;25.73;;;22.25;;
8893;SDS011;4483;48.622;9.230;2022-08-19T13:08:20;28.17;;;22.60;;
8893;SDS011;4483;48.622;9.230;2022-08-19T13:10:47;34.75;;;26.58;;
8893;SDS011;4483;48.622;9.230;2022-08-19T13:13:13;28.13;;;24.48;;
8893;SDS011;4483;48.622;9.230;2022-08-19T13:15:41;25.13;;;22.25;;
8893;SDS011;4483;48.622;9.230;2022-08-19T13:18:11;26.92;;;23.17;;
8893;SDS011;4483;48.622;9.230;2022-08-19T13:20:39;24.60;;;21.65;;
8893;SDS011;4483;48.622;9.230;2022-08-19T13:23:07;24.52;;;21.55;;
8893;SDS011;4483;48.622;9.230;2022-08-19T13:25:33;23.85;;;21.38;;
8893;SDS011;4483;48.622;9.230;2022-08-19T13:28:01;23.65;;;21.15;;
8893;SDS011;4483;48.622;9.230;2022-08-19T13:30:28;26.60;;;20.15;;
8893;SDS011;4483;48.622;9.230;2022-08-19T13:33:12;22.60;;;20.23;;
8893;SDS011;4483;48.622;9.230;2022-08-19T13:35:43;22.50;;;20.17;;
8893;SDS011;4483;48.622;9.230;2022-08-19T13:38:13;23.98;;;19.77;;
8893;SDS011;4483;48.622;9.230;2022-08-19T13:40:41;22.40;;;19.23;;
8893;SDS011;4483;48.622;9.230;2022-08-19T13:43:08;20.95;;;18.95;;
8893;SDS011;4483;48.622;9.230;2022-08-19T13:45:39;22.58;;;19.88;;
8893;SDS011;4483;48.622;9.230;2022-08-19T13:48:06;22.85;;;19.48;;
8893;SDS011;4483;48.622;9.230;2022-08-19T13:50:35;20.42;;;18.42;;
8893;SDS011;4483;48.622;9.230;2022-08-19T13:53:06;21.15;;;18.95;;
8893;SDS011;4483;48.622;9.230;2022-08-19T13:55:34;21.00;;;18.80;;
8893;SDS011;4483;48.622;9.230;2022-08-19T13:58:02;20.98;;;18.67;;
8893;SDS011;4483;48.622;9.230;2022-08-19T14:00:30;21.92;;;18.58;;
8893;SDS011;4483;48.622;9.230;2022-08-19T14:03:00;21.38;;;19.10;;
8893;SDS011;4483;48.622;9.230;2022-08-19T14:05:27;21.75;;;19.52;;
8893;SDS011;4483;48.622;9.230;2022-08-19T14:07:54;20.38;;;18.38;;
8893;SDS011;4483;48.622;9.230;2022-08-19T14:10:23;21.42;;;18.45;;
8893;SDS011;4483;48.622;9.230;2022-08-19T14:12:52;20.38;;;18.20;;
8893;SDS011;4483;48.622;9.230;2022-08-19T14:15:20;21.42;;;18.98;;
8893;SDS011;4483;48.622;9.230;2022-08-19T14:17:48;20.75;;;18.35;;
8893;SDS011;4483;48.622;9.230;2022-08-19T14:20:15;20.38;;;18.10;;
8893;SDS011;4483;48.622;9.230;2022-08-19T14:22:42;20.60;;;18.48;;
8893;SDS011;4483;48.622;9.230;2022-08-19T14:25:15;19.55;;;17.55;;
8893;SDS011;4483;48.622;9.230;2022-08-19T14:27:44;20.63;;;18.52;;
8893;SDS011;4483;48.622;9.230;2022-08-19T14:30:13;21.30;;;18.67;;
8893;SDS011;4483;48.622;9.230;2022-08-19T14:32:42;21.23;;;19.02;;
8893;SDS011;4483;48.622;9.230;2022-08-19T14:35:09;20.00;;;17.80;;
8893;SDS011;4483;48.622;9.230;2022-08-19T14:37:37;20.52;;;18.10;;
8893;SDS011;4483;48.622;9.230;2022-08-19T14:40:05;19.17;;;17.27;;
8893;SDS011;4483;48.622;9.230;2022-08-19T14:42:33;21.58;;;17.35;;
8893;SDS011;4483;48.622;9.230;2022-08-19T14:45:01;18.55;;;16.80;;
8893;SDS011;4483;48.622;9.230;2022-08-19T14:47:30;18.85;;;16.95;;
8893;SDS011;4483;48.622;9.230;2022-08-19T14:49:56;21.42;;;18.27;;
8893;SDS011;4483;48.622;9.230;2022-08-19T14:52:23;19.35;;;17.45;;
8893;SDS011;4483;48.622;9.230;2022-08-19T14:54:50;20.17;;;18.00;;
8893;SDS011;4483;48.622;9.230;2022-08-19T14:57:16;22.08;;;17.63;;